sensor_id;sensor_type;location;lat;lon;timestamp;pressure;altitude;pressure_sealevel;temperature;humidity
72061;BME280;59925;52.136;5.420;2023-08-06T00:00:26;100608.84;;;14.70;100.00
72061;BME280;59925;52.136;5.420;2023-08-06T00:02:53;100605.84;;;14.71;100.00
72061;BME280;59925;52.136;5.420;2023-08-06T00:05:20;100603.94;;;14.72;100.00
72061;BME280;59925;52.136;5.420;2023-08-06T00:07:50;100605.34;;;14.69;100.00
72061;BME280;59925;52.136;5.420;2023-08-06T00:10:17;100603.75;;;14.68;100.00
72061;BME280;59925;52.136;5.420;2023-08-06T00:12:44;100593.25;;;14.67;100.00
72061;BME280;59925;52.136;5.420;2023-08-06T00:15:11;100601.34;;;14.67;100.00
72061;BME280;59925;52.136;5.420;2023-08-06T00:17:38;100599.16;;;14.69;100.00
72061;BME280;59925;52.136;5.420;2023-08-06T00:20:05;100602.44;;;14.66;100.00
72061;BME280;59925;52.136;5.420;2023-08-06T00:22:34;100607.84;;;14.66;100.00
72061;BME280;59925;52.136;5.420;2023-08-06T00:25:02;100597.81;;;14.66;100.00
72061;BME280;59925;52.136;5.420;2023-08-06T00:27:29;100593.53;;;14.65;100.00
72061;BME280;59925;52.136;5.420;2023-08-06T00:29:56;100595.94;;;14.67;100.00
72061;BME280;59925;52.136;5.420;2023-08-06T00:32:22;100594.34;;;14.66;100.00
72061;BME280;59925;52.136;5.420;2023-08-06T00:34:49;100596.53;;;14.64;100.00
72061;BME280;59925;52.136;5.420;2023-08-06T00:37:19;100595.44;;;14.65;100.00
72061;BME280;59925;52.136;5.420;2023-08-06T00:39:45;100596.22;;;14.65;100.00
72061;BME280;59925;52.136;5.420;2023-08-06T00:42:12;100591.16;;;14.64;100.00
72061;BME280;59925;52.136;5.420;2023-08-06T00:44:39;100592.25;;;14.63;100.00
72061;BME280;59925;52.136;5.420;2023-08-06T00:47:06;100591.94;;;14.64;100.00
72061;BME280;59925;52.136;5.420;2023-08-06T00:49:35;100595.44;;;14.65;100.00
72061;BME280;59925;52.136;5.420;2023-08-06T00:52:04;100600.03;;;14.64;100.00
72061;BME280;59925;52.136;5.420;2023-08-06T00:54:31;100595.72;;;14.63;100.00
72061;BME280;59925;52.136;5.420;2023-08-06T00:57:00;100599.25;;;14.64;100.00
72061;BME280;59925;52.136;5.420;2023-08-06T00:59:29;100593.34;;;14.62;100.00
72061;BME280;59925;52.136;5.420;2023-08-06T01:01:56;100596.81;;;14.62;100.00
72061;BME280;59925;52.136;5.420;2023-08-06T01:04:23;100594.94;;;14.63;100.00
72061;BME280;59925;52.136;5.420;2023-08-06T01:07:01;100596.53;;;14.64;100.00
72061;BME280;59925;52.136;5.420;2023-08-06T01:17:16;100591.44;;;14.62;100.00
72061;BME280;59925;52.136;5.420;2023-08-06T01:19:46;100587.63;;;14.63;100.00
72061;BME280;59925;52.136;5.420;2023-08-06T01:22:13;100576.84;;;14.63;100.00
72061;BME280;59925;52.136;5.420;2023-08-06T01:24:40;100580.84;;;14.66;100.00
72061;BME280;59925;52.136;5.420;2023-08-06T01:30:31;100578.94;;;14.66;100.00
72061;BME280;59925;52.136;5.420;2023-08-06T01:33:04;100589.47;;;14.68;100.00
72061;BME280;59925;52.136;5.420;2023-08-06T01:35:32;100584.88;;;14.68;100.00
72061;BME280;59925;52.136;5.420;2023-08-06T01:38:00;100592.19;;;14.68;100.00
72061;BME280;59925;52.136;5.420;2023-08-06T01:40:28;100588.66;;;14.67;100.00
72061;BME280;59925;52.136;5.420;2023-08-06T01:42:55;100580.84;;;14.66;100.00
72061;BME280;59925;52.136;5.420;2023-08-06T01:45:22;100583.06;;;14.64;100.00
72061;BME280;59925;52.136;5.420;2023-08-06T01:47:48;100580.84;;;14.66;100.00
72061;BME280;59925;52.136;5.420;2023-08-06T01:50:15;100589.47;;;14.68;100.00
72061;BME280;59925;52.136;5.420;2023-08-06T01:52:42;100587.56;;;14.68;100.00
72061;BME280;59925;52.136;5.420;2023-08-06T01:55:08;100592.19;;;14.68;100.00
72061;BME280;59925;52.136;5.420;2023-08-06T01:57:35;100590.53;;;14.67;100.00
72061;BME280;59925;52.136;5.420;2023-08-06T02:00:01;100593.47;;;14.70;100.00
72061;BME280;59925;52.136;5.420;2023-08-06T02:02:30;100589.94;;;14.70;100.00
72061;BME280;59925;52.136;5.420;2023-08-06T02:04:56;100597.25;;;14.69;100.00
72061;BME280;59925;52.136;5.420;2023-08-06T02:07:24;100596.44;;;14.69;100.00
72061;BME280;59925;52.136;5.420;2023-08-06T02:09:51;100591.38;;;14.67;100.00
72061;BME280;59925;52.136;5.420;2023-08-06T02:12:17;100592.75;;;14.65;100.00
72061;BME280;59925;52.136;5.420;2023-08-06T02:14:44;100592.84;;;14.60;100.00
72061;BME280;59925;52.136;5.420;2023-08-06T02:17:11;100592.84;;;14.60;100.00
72061;BME280;59925;52.136;5.420;2023-08-06T02:19:37;100596.63;;;14.59;100.00
72061;BME280;59925;52.136;5.420;2023-08-06T02:22:04;100598.25;;;14.60;100.00
72061;BME280;59925;52.136;5.420;2023-08-06T02:24:31;100594.13;;;14.62;100.00
72061;BME280;59925;52.136;5.420;2023-08-06T02:26:58;100600.66;;;14.61;100.00
72061;BME280;59925;52.136;5.420;2023-08-06T02:29:25;100593.34;;;14.62;100.00
72061;BME280;59925;52.136;5.420;2023-08-06T02:31:51;100591.44;;;14.62;100.00
72061;BME280;59925;52.136;5.420;2023-08-06T02:34:19;100595.53;;;14.60;100.00
72061;BME280;59925;52.136;5.420;2023-08-06T02:36:45;100584.75;;;14.60;100.00
72061;BME280;59925;52.136;5.420;2023-08-06T02:39:12;100591.75;;;14.61;100.00
72061;BME280;59925;52.136;5.420;2023-08-06T02:41:38;100591.25;;;14.59;100.00
72061;BME280;59925;52.136;5.420;2023-08-06T02:44:05;100594.44;;;14.61;100.00
72061;BME280;59925;52.136;5.420;2023-08-06T02:46:31;100583.97;;;14.59;100.00
72061;BME280;59925;52.136;5.420;2023-08-06T02:48:58;100592.06;;;14.59;100.00
72061;BME280;59925;52.136;5.420;2023-08-06T02:51:24;100579.34;;;14.60;100.00
72061;BME280;59925;52.136;5.420;2023-08-06T02:53:51;100581.28;;;14.59;100.00
72061;BME280;59925;52.136;5.420;2023-08-06T02:56:18;100582.06;;;14.60;100.00
72061;BME280;59925;52.136;5.420;2023-08-06T02:58:44;100578.25;;;14.61;100.00
72061;BME280;59925;52.136;5.420;2023-08-06T03:01:11;100573.38;;;14.63;100.00
72061;BME280;59925;52.136;5.420;2023-08-06T03:03:37;100576.06;;;14.63;100.00
72061;BME280;59925;52.136;5.420;2023-08-06T03:06:04;100565.28;;;14.63;100.00
72061;BME280;59925;52.136;5.420;2023-08-06T03:08:30;100566.88;;;14.64;100.00
72061;BME280;59925;52.136;5.420;2023-08-06T03:10:57;100567.66;;;14.64;100.00
72061;BME280;59925;52.136;5.420;2023-08-06T03:13:23;100564.47;;;14.62;100.00
72061;BME280;59925;52.136;5.420;2023-08-06T03:15:59;100574.66;;;14.65;100.00
72061;BME280;59925;52.136;5.420;2023-08-06T03:18:26;100567.66;;;14.64;100.00
72061;BME280;59925;52.136;5.420;2023-08-06T03:20:53;100570.06;;;14.66;100.00
72061;BME280;59925;52.136;5.420;2023-08-06T03:23:20;100562.75;;;14.66;100.00
72061;BME280;59925;52.136;5.420;2023-08-06T03:25:47;100572.25;;;14.64;100.00
72061;BME280;59925;52.136;5.420;2023-08-06T03:28:13;100568.47;;;14.65;100.00
72061;BME280;59925;52.136;5.420;2023-08-06T03:30:40;100569.56;;;14.64;100.00
72061;BME280;59925;52.136;5.420;2023-08-06T03:33:07;100576.25;;;14.66;100.00
72061;BME280;59925;52.136;5.420;2023-08-06T03:35:34;100574.66;;;14.65;100.00
72061;BME280;59925;52.136;5.420;2023-08-06T03:38:00;100569.25;;;14.65;100.00
72061;BME280;59925;52.136;5.420;2023-08-06T03:40:27;100564.97;;;14.64;100.00
72061;BME280;59925;52.136;5.420;2023-08-06T03:42:54;100577.06;;;14.67;100.00
72061;BME280;59925;52.136;5.420;2023-08-06T03:45:20;100570.06;;;14.66;100.00
72061;BME280;59925;52.136;5.420;2023-08-06T03:47:47;100571.94;;;14.65;100.00
72061;BME280;59925;52.136;5.420;2023-08-06T03:50:14;100568.47;;;14.65;100.00
72061;BME280;59925;52.136;5.420;2023-08-06T03:52:40;100578.16;;;14.66;100.00
72061;BME280;59925;52.136;5.420;2023-08-06T03:55:07;100575.47;;;14.66;100.00
72061;BME280;59925;52.136;5.420;2023-08-06T03:57:33;100570.84;;;14.66;100.00
72061;BME280;59925;52.136;5.420;2023-08-06T04:00:00;100579.75;;;14.67;100.00
72061;BME280;59925;52.136;5.420;2023-08-06T04:02:26;100581.38;;;14.68;100.00
72061;BME280;59925;52.136;5.420;2023-08-06T04:04:53;100578.16;;;14.66;100.00
72061;BME280;59925;52.136;5.420;2023-08-06T04:07:20;100571.44;;;14.63;100.00
72061;BME280;59925;52.136;5.420;2023-08-06T04:09:54;100578.44;;;14.64;100.00
72061;BME280;59925;52.136;5.420;2023-08-06T04:12:21;100574.97;;;14.64;100.00
72061;BME280;59925;52.136;5.420;2023-08-06T04:14:49;100578.44;;;14.64;100.00
72061;BME280;59925;52.136;5.420;2023-08-06T04:17:16;100573.03;;;14.64;100.00
72061;BME280;59925;52.136;5.420;2023-08-06T04:19:42;100574.66;;;14.65;100.00
72061;BME280;59925;52.136;5.420;2023-08-06T04:22:09;100573.53;;;14.66;100.00
72061;BME280;59925;52.136;5.420;2023-08-06T04:24:36;100578.16;;;14.66;100.00
72061;BME280;59925;52.136;5.420;2023-08-06T04:27:02;100572.16;;;14.69;100.00
72061;BME280;59925;52.136;5.420;2023-08-06T04:29:29;100573.47;;;14.71;100.00
72061;BME280;59925;52.136;5.420;2023-08-06T04:31:56;100587.47;;;14.74;100.00
72061;BME280;59925;52.136;5.420;2023-08-06T04:34:22;100589.06;;;14.75;100.00
72061;BME280;59925;52.136;5.420;2023-08-06T04:36:49;100589.84;;;14.75;100.00
72061;BME280;59925;52.136;5.420;2023-08-06T04:39:15;100590.34;;;14.77;100.00
72061;BME280;59925;52.136;5.420;2023-08-06T04:41:42;100597.34;;;14.78;100.00
72061;BME280;59925;52.136;5.420;2023-08-06T04:44:08;100587.66;;;14.77;100.00
72061;BME280;59925;52.136;5.420;2023-08-06T04:46:35;100602.44;;;14.80;100.00
72061;BME280;59925;52.136;5.420;2023-08-06T04:49:02;100601.00;;;14.82;100.00
72061;BME280;59925;52.136;5.420;2023-08-06T04:51:28;100594.72;;;14.87;100.00
72061;BME280;59925;52.136;5.420;2023-08-06T04:53:56;100604.59;;;14.92;100.00
72061;BME280;59925;52.136;5.420;2023-08-06T04:56:23;100598.91;;;14.93;100.00
72061;BME280;59925;52.136;5.420;2023-08-06T04:58:50;100597.47;;;14.96;100.00
72061;BME280;59925;52.136;5.420;2023-08-06T05:01:17;100600.69;;;14.98;100.00
72061;BME280;59925;52.136;5.420;2023-08-06T05:03:43;100606.28;;;15.01;100.00
72061;BME280;59925;52.136;5.420;2023-08-06T05:06:10;100604.47;;;14.97;100.00
72061;BME280;59925;52.136;5.420;2023-08-06T05:08:37;100610.38;;;14.99;100.00
72061;BME280;59925;52.136;5.420;2023-08-06T05:11:03;100615.47;;;15.00;100.00
72061;BME280;59925;52.136;5.420;2023-08-06T05:13:30;100611.38;;;15.03;100.00
72061;BME280;59925;52.136;5.420;2023-08-06T05:15:56;100614.56;;;15.05;100.00
72061;BME280;59925;52.136;5.420;2023-08-06T05:18:23;100623.94;;;15.08;100.00
72061;BME280;59925;52.136;5.420;2023-08-06T05:20:49;100617.75;;;15.07;100.00
72061;BME280;59925;52.136;5.420;2023-08-06T05:23:16;100628.56;;;15.07;100.00
72061;BME280;59925;52.136;5.420;2023-08-06T05:25:43;100631.72;;;15.09;100.00
72061;BME280;59925;52.136;5.420;2023-08-06T05:28:09;100634.44;;;15.09;100.00
72061;BME280;59925;52.136;5.420;2023-08-06T05:30:39;100635.06;;;15.06;100.00
72061;BME280;59925;52.136;5.420;2023-08-06T05:33:06;100635.56;;;15.08;100.00
72061;BME280;59925;52.136;5.420;2023-08-06T05:35:32;100638.44;;;15.12;100.00
72061;BME280;59925;52.136;5.420;2023-08-06T05:37:59;100637.34;;;15.13;100.00
72061;BME280;59925;52.136;5.420;2023-08-06T05:40:26;100634.94;;;15.11;100.00
72061;BME280;59925;52.136;5.420;2023-08-06T05:42:55;100642.75;;;15.13;100.00
72061;BME280;59925;52.136;5.420;2023-08-06T05:45:22;100651.63;;;15.13;100.00
72061;BME280;59925;52.136;5.420;2023-08-06T05:47:48;100644.63;;;15.12;100.00
72061;BME280;59925;52.136;5.420;2023-08-06T05:50:16;100658.31;;;15.16;100.00
72061;BME280;59925;52.136;5.420;2023-08-06T05:52:43;100660.53;;;15.14;100.00
72061;BME280;59925;52.136;5.420;2023-08-06T05:55:09;100659.72;;;15.13;100.00
72061;BME280;59925;52.136;5.420;2023-08-06T05:57:36;100660.81;;;15.12;100.00
72061;BME280;59925;52.136;5.420;2023-08-06T06:00:03;100665.44;;;15.12;100.00
72061;BME280;59925;52.136;5.420;2023-08-06T06:02:32;100659.22;;;15.11;100.00
72061;BME280;59925;52.136;5.420;2023-08-06T06:04:59;100667.81;;;15.13;100.00
72061;BME280;59925;52.136;5.420;2023-08-06T06:07:25;100665.44;;;15.12;100.00
72061;BME280;59925;52.136;5.420;2023-08-06T06:09:52;100670.53;;;15.13;100.00
72061;BME280;59925;52.136;5.420;2023-08-06T06:12:18;100680.72;;;15.16;100.00
72061;BME280;59925;52.136;5.420;2023-08-06T06:14:45;100681.41;;;15.22;100.00
72061;BME280;59925;52.136;5.420;2023-08-06T06:17:11;100673.81;;;15.24;100.00
72061;BME280;59925;52.136;5.420;2023-08-06T06:19:38;100678.88;;;15.26;100.00
72061;BME280;59925;52.136;5.420;2023-08-06T06:22:05;100676.38;;;15.29;100.00
72061;BME280;59925;52.136;5.420;2023-08-06T06:24:31;100684.19;;;15.31;100.00
72061;BME280;59925;52.136;5.420;2023-08-06T06:26:58;100691.19;;;15.32;100.00
72061;BME280;59925;52.136;5.420;2023-08-06T06:29:24;100689.16;;;15.38;100.00
72061;BME280;59925;52.136;5.420;2023-08-06T06:31:51;100692.03;;;15.41;100.00
72061;BME280;59925;52.136;5.420;2023-08-06T06:34:18;100695.53;;;15.42;100.00
72061;BME280;59925;52.136;5.420;2023-08-06T06:36:45;100697.63;;;15.45;100.00
72061;BME280;59925;52.136;5.420;2023-08-06T06:39:11;100695.75;;;15.45;100.00
72061;BME280;59925;52.136;5.420;2023-08-06T06:41:38;100706.56;;;15.45;100.00
72061;BME280;59925;52.136;5.420;2023-08-06T06:44:05;100707.34;;;15.46;100.00
72061;BME280;59925;52.136;5.420;2023-08-06T06:46:32;100706.56;;;15.45;100.00
72061;BME280;59925;52.136;5.420;2023-08-06T06:48:58;100707.75;;;15.39;100.00
72061;BME280;59925;52.136;5.420;2023-08-06T06:51:25;100707.47;;;15.41;100.00
72061;BME280;59925;52.136;5.420;2023-08-06T06:53:51;100708.84;;;15.38;100.00
72061;BME280;59925;52.136;5.420;2023-08-06T06:56:18;100709.66;;;15.39;100.00
72061;BME280;59925;52.136;5.420;2023-08-06T06:58:44;100709.66;;;15.39;100.00
72061;BME280;59925;52.136;5.420;2023-08-06T07:01:11;100705.38;;;15.38;100.00
72061;BME280;59925;52.136;5.420;2023-08-06T07:03:38;100709.97;;;15.37;100.00
72061;BME280;59925;52.136;5.420;2023-08-06T07:06:05;100716.47;;;15.36;100.00
72061;BME280;59925;52.136;5.420;2023-08-06T07:08:32;100714.41;;;15.33;100.00
72061;BME280;59925;52.136;5.420;2023-08-06T07:11:01;100709.97;;;15.37;100.00
72061;BME280;59925;52.136;5.420;2023-08-06T07:13:28;100716.69;;;15.40;100.00
72061;BME280;59925;52.136;5.420;2023-08-06T07:15:54;100710.03;;;15.46;100.00
72061;BME280;59925;52.136;5.420;2023-08-06T07:18:22;100716.72;;;15.48;100.00
72061;BME280;59925;52.136;5.420;2023-08-06T07:20:52;100713.72;;;15.50;100.00
72061;BME280;59925;52.136;5.420;2023-08-06T07:23:23;100715.84;;;15.53;100.00
72061;BME280;59925;52.136;5.420;2023-08-06T07:25:50;100718.41;;;15.58;100.00
72061;BME280;59925;52.136;5.420;2023-08-06T07:28:17;100717.97;;;15.65;100.00
72061;BME280;59925;52.136;5.420;2023-08-06T07:30:44;100725.81;;;15.75;100.00
72061;BME280;59925;52.136;5.420;2023-08-06T07:33:12;100725.03;;;15.75;100.00
72061;BME280;59925;52.136;5.420;2023-08-06T07:35:38;100725.34;;;15.73;100.00
72061;BME280;59925;52.136;5.420;2023-08-06T07:38:05;100732.84;;;15.76;100.00
72061;BME280;59925;52.136;5.420;2023-08-06T07:40:32;100727.31;;;15.82;100.00
72061;BME280;59925;52.136;5.420;2023-08-06T07:42:58;100730.41;;;15.89;100.00
72061;BME280;59925;52.136;5.420;2023-08-06T07:45:25;100735.88;;;15.98;100.00
72061;BME280;59925;52.136;5.420;2023-08-06T07:47:53;100742.88;;;15.99;100.00
72061;BME280;59925;52.136;5.420;2023-08-06T07:50:20;100727.63;;;16.03;100.00
72061;BME280;59925;52.136;5.420;2023-08-06T07:52:47;100732.22;;;16.02;100.00
72061;BME280;59925;52.136;5.420;2023-08-06T07:55:13;100733.97;;;15.98;100.00
72061;BME280;59925;52.136;5.420;2023-08-06T07:57:40;100737.63;;;15.93;100.00
72061;BME280;59925;52.136;5.420;2023-08-06T08:00:07;100737.22;;;15.86;100.00
72061;BME280;59925;52.136;5.420;2023-08-06T08:02:34;100735.81;;;15.89;100.00
72061;BME280;59925;52.136;5.420;2023-08-06T08:05:00;100738.50;;;15.89;100.00
72061;BME280;59925;52.136;5.420;2023-08-06T08:07:27;100739.72;;;15.83;100.00
72061;BME280;59925;52.136;5.420;2023-08-06T08:09:56;100734.63;;;15.81;100.00
72061;BME280;59925;52.136;5.420;2023-08-06T08:12:23;100738.72;;;15.78;100.00
72061;BME280;59925;52.136;5.420;2023-08-06T08:14:50;100744.75;;;15.75;100.00
72061;BME280;59925;52.136;5.420;2023-08-06T08:17:16;100743.78;;;15.71;100.00
72061;BME280;59925;52.136;5.420;2023-08-06T08:19:43;100747.69;;;15.65;100.00
72061;BME280;59925;52.136;5.420;2023-08-06T08:22:10;100752.59;;;15.63;100.00
72061;BME280;59925;52.136;5.420;2023-08-06T08:24:38;100746.66;;;15.52;100.00
72061;BME280;59925;52.136;5.420;2023-08-06T08:27:05;100755.69;;;15.47;100.00
72061;BME280;59925;52.136;5.420;2023-08-06T08:29:32;100745.06;;;15.37;100.00
72061;BME280;59925;52.136;5.420;2023-08-06T08:31:58;100760.59;;;15.31;100.00
72061;BME280;59925;52.136;5.420;2023-08-06T08:34:25;100756.41;;;15.25;100.00
72061;BME280;59925;52.136;5.420;2023-08-06T08:36:52;100753.63;;;15.16;100.00
72061;BME280;59925;52.136;5.420;2023-08-06T08:39:18;100760.22;;;15.10;100.00
72061;BME280;59925;52.136;5.420;2023-08-06T08:41:45;100764.03;;;15.09;100.00
72061;BME280;59925;52.136;5.420;2023-08-06T08:44:13;100760.03;;;15.07;100.00
72061;BME280;59925;52.136;5.420;2023-08-06T08:46:41;100763.84;;;15.06;100.00
72061;BME280;59925;52.136;5.420;2023-08-06T08:49:10;100762.72;;;15.07;100.00
72061;BME280;59925;52.136;5.420;2023-08-06T08:51:37;100774.13;;;15.04;100.00
72061;BME280;59925;52.136;5.420;2023-08-06T08:54:04;100763.13;;;15.00;100.00
72061;BME280;59925;52.136;5.420;2023-08-06T08:56:31;100764.44;;;15.02;100.00
72061;BME280;59925;52.136;5.420;2023-08-06T08:58:58;100773.66;;;15.01;100.00
72061;BME280;59925;52.136;5.420;2023-08-06T09:01:26;100779.34;;;15.00;100.00
72061;BME280;59925;52.136;5.420;2023-08-06T09:03:57;100781.34;;;14.94;100.00
72061;BME280;59925;52.136;5.420;2023-08-06T09:06:25;100788.66;;;14.94;100.00
72061;BME280;59925;52.136;5.420;2023-08-06T09:09:26;100783.25;;;14.94;100.00
72061;BME280;59925;52.136;5.420;2023-08-06T09:11:55;100793.34;;;14.88;100.00
72061;BME280;59925;52.136;5.420;2023-08-06T09:14:26;100789.91;;;14.82;100.00
72061;BME280;59925;52.136;5.420;2023-08-06T09:16:53;100794.94;;;14.75;100.00
72061;BME280;59925;52.136;5.420;2023-08-06T09:19:20;100792.91;;;14.67;100.00
72061;BME280;59925;52.136;5.420;2023-08-06T09:21:51;100795.28;;;14.54;100.00
72061;BME280;59925;52.136;5.420;2023-08-06T09:24:18;100805.38;;;14.49;100.00
72061;BME280;59925;52.136;5.420;2023-08-06T09:26:45;100814.25;;;14.49;100.00
72061;BME280;59925;52.136;5.420;2023-08-06T09:29:11;100817.94;;;14.53;100.00
72061;BME280;59925;52.136;5.420;2023-08-06T09:31:42;100817.13;;;14.53;100.00
72061;BME280;59925;52.136;5.420;2023-08-06T09:34:17;100818.22;;;14.52;100.00
72061;BME280;59925;52.136;5.420;2023-08-06T09:37:03;100819.06;;;14.52;100.00
72061;BME280;59925;52.136;5.420;2023-08-06T09:39:30;100828.75;;;14.53;100.00
72061;BME280;59925;52.136;5.420;2023-08-06T09:41:58;100830.63;;;14.53;100.00
72061;BME280;59925;52.136;5.420;2023-08-06T09:44:27;100830.34;;;14.54;100.00
72061;BME280;59925;52.136;5.420;2023-08-06T09:46:55;100825.75;;;14.55;100.00
72061;BME280;59925;52.136;5.420;2023-08-06T09:49:26;100831.94;;;14.55;100.00
72061;BME280;59925;52.136;5.420;2023-08-06T09:51:54;100837.53;;;14.59;100.00
72061;BME280;59925;52.136;5.420;2023-08-06T09:54:23;100842.06;;;14.64;100.00
72061;BME280;59925;52.136;5.420;2023-08-06T09:56:54;100834.53;;;14.61;100.00
72061;BME280;59925;52.136;5.420;2023-08-06T09:59:21;100832.53;;;14.52;100.00
72061;BME280;59925;52.136;5.420;2023-08-06T10:01:48;100842.22;;;14.53;100.00
72061;BME280;59925;52.136;5.420;2023-08-06T10:04:15;100846.53;;;14.54;100.00
72061;BME280;59925;52.136;5.420;2023-08-06T10:06:50;100852.03;;;14.63;100.00
72061;BME280;59925;52.136;5.420;2023-08-06T10:09:16;100848.22;;;14.64;100.00
72061;BME280;59925;52.136;5.420;2023-08-06T10:11:49;100861.16;;;14.67;100.00
72061;BME280;59925;52.136;5.420;2023-08-06T10:14:28;100859.19;;;14.73;100.00
72061;BME280;59925;52.136;5.420;2023-08-06T10:16:57;100868.88;;;14.74;100.00
72061;BME280;59925;52.136;5.420;2023-08-06T10:19:25;100871.56;;;14.74;100.00
72061;BME280;59925;52.136;5.420;2023-08-06T10:22:14;100869.59;;;14.80;100.00
72061;BME280;59925;52.136;5.420;2023-08-06T10:25:02;100872.09;;;14.76;100.00
72061;BME280;59925;52.136;5.420;2023-08-06T10:27:40;100872.09;;;14.76;100.00
72061;BME280;59925;52.136;5.420;2023-08-06T10:30:27;100860.47;;;14.76;100.00
72061;BME280;59925;52.136;5.420;2023-08-06T10:32:58;100864.09;;;14.85;100.00
72061;BME280;59925;52.136;5.420;2023-08-06T10:35:35;100870.22;;;14.91;100.00
72061;BME280;59925;52.136;5.420;2023-08-06T10:38:10;100870.22;;;14.91;100.00
72061;BME280;59925;52.136;5.420;2023-08-06T10:41:00;100866.94;;;14.94;100.00
72061;BME280;59925;52.136;5.420;2023-08-06T10:43:30;100871.72;;;14.97;100.00
72061;BME280;59925;52.136;5.420;2023-08-06T10:46:00;100866.81;;;14.99;100.00
72061;BME280;59925;52.136;5.420;2023-08-06T10:48:34;100871.50;;;14.93;100.00
72061;BME280;59925;52.136;5.420;2023-08-06T10:51:03;100880.91;;;14.96;100.00
72061;BME280;59925;52.136;5.420;2023-08-06T10:53:31;100866.94;;;14.94;100.00
72061;BME280;59925;52.136;5.420;2023-08-06T10:56:00;100873.19;;;14.89;100.00
72061;BME280;59925;52.136;5.420;2023-08-06T10:58:33;100879.72;;;14.88;100.00
72061;BME280;59925;52.136;5.420;2023-08-06T11:01:00;100874.78;;;14.90;100.00
72061;BME280;59925;52.136;5.420;2023-08-06T11:03:27;100882.09;;;14.90;100.00
72061;BME280;59925;52.136;5.420;2023-08-06T11:05:54;100886.09;;;14.92;100.00
72061;BME280;59925;52.136;5.420;2023-08-06T11:08:28;100887.50;;;14.90;100.00
72061;BME280;59925;52.136;5.420;2023-08-06T11:11:07;100891.81;;;14.91;100.00
72061;BME280;59925;52.136;5.420;2023-08-06T11:13:34;100887.63;;;14.98;100.00
72061;BME280;59925;52.136;5.420;2023-08-06T11:16:01;100890.81;;;15.00;100.00
72061;BME280;59925;52.136;5.420;2023-08-06T11:18:28;100892.59;;;14.91;100.00
72061;BME280;59925;52.136;5.420;2023-08-06T11:20:55;100903.69;;;14.90;100.00
72061;BME280;59925;52.136;5.420;2023-08-06T11:23:21;100897.59;;;14.84;100.00
72061;BME280;59925;52.136;5.420;2023-08-06T11:25:48;100908.06;;;14.85;100.00
72061;BME280;59925;52.136;5.420;2023-08-06T11:28:14;100902.59;;;14.91;100.00
72061;BME280;59925;52.136;5.420;2023-08-06T11:30:41;100912.09;;;14.88;100.00
72061;BME280;59925;52.136;5.420;2023-08-06T11:33:08;100919.47;;;14.82;100.00
72061;BME280;59925;52.136;5.420;2023-08-06T11:35:36;100920.97;;;14.75;100.00
72061;BME280;59925;52.136;5.420;2023-08-06T11:38:03;100924.53;;;14.70;100.00
72061;BME280;59925;52.136;5.420;2023-08-06T11:40:31;100922.47;;;14.62;100.00
72061;BME280;59925;52.136;5.420;2023-08-06T11:42:58;100923.94;;;14.54;100.00
72061;BME280;59925;52.136;5.420;2023-08-06T11:45:25;100920.22;;;14.50;100.00
72061;BME280;59925;52.136;5.420;2023-08-06T11:47:53;100916.91;;;14.39;100.00
72061;BME280;59925;52.136;5.420;2023-08-06T11:50:26;100916.38;;;14.37;100.00
72061;BME280;59925;52.136;5.420;2023-08-06T11:52:56;100919.97;;;14.32;100.00
72061;BME280;59925;52.136;5.420;2023-08-06T11:55:24;100916.81;;;14.25;100.00
72061;BME280;59925;52.136;5.420;2023-08-06T11:57:51;100925.00;;;14.20;100.00
72061;BME280;59925;52.136;5.420;2023-08-06T12:00:18;100912.09;;;14.17;100.00
72061;BME280;59925;52.136;5.420;2023-08-06T12:02:46;100919.69;;;14.15;100.00
72061;BME280;59925;52.136;5.420;2023-08-06T12:05:14;100921.28;;;14.16;100.00
72061;BME280;59925;52.136;5.420;2023-08-06T12:07:43;100922.38;;;14.15;100.00
72061;BME280;59925;52.136;5.420;2023-08-06T12:10:12;100919.38;;;14.16;100.00
72061;BME280;59925;52.136;5.420;2023-08-06T12:12:39;100927.47;;;14.16;100.00
72061;BME280;59925;52.136;5.420;2023-08-06T12:15:07;100925.00;;;14.20;100.00
72061;BME280;59925;52.136;5.420;2023-08-06T12:17:34;100920.91;;;14.22;100.00
72061;BME280;59925;52.136;5.420;2023-08-06T12:20:03;100933.00;;;14.25;100.00
72061;BME280;59925;52.136;5.420;2023-08-06T12:22:30;100941.59;;;14.27;100.00
72061;BME280;59925;52.136;5.420;2023-08-06T12:25:06;100945.53;;;14.35;100.00
72061;BME280;59925;52.136;5.420;2023-08-06T12:27:35;100949.53;;;14.37;100.00
72061;BME280;59925;52.136;5.420;2023-08-06T12:30:02;100944.97;;;14.38;100.00
72061;BME280;59925;52.136;5.420;2023-08-06T12:32:30;100956.84;;;14.37;100.00
72061;BME280;59925;52.136;5.420;2023-08-06T12:34:57;100951.44;;;14.37;100.00
72061;BME280;59925;52.136;5.420;2023-08-06T12:37:26;100954.94;;;14.37;100.00
72061;BME280;59925;52.136;5.420;2023-08-06T12:39:53;100955.19;;;14.41;100.00
72061;BME280;59925;52.136;5.420;2023-08-06T12:42:19;100959.69;;;14.46;100.00
72061;BME280;59925;52.136;5.420;2023-08-06T12:44:48;100962.81;;;14.53;100.00
72061;BME280;59925;52.136;5.420;2023-08-06T12:47:16;100961.44;;;14.55;100.00
72061;BME280;59925;52.136;5.420;2023-08-06T12:49:42;100970.25;;;14.61;100.00
72061;BME280;59925;52.136;5.420;2023-08-06T12:52:09;100971.81;;;14.62;100.00
72061;BME280;59925;52.136;5.420;2023-08-06T12:54:36;100968.28;;;14.67;100.00